createdAt,value
2023-05-05T00:01:09.084Z,10.34
2023-05-05T00:03:35.876Z,10.33
2023-05-05T00:06:02.882Z,10.37
2023-05-05T00:08:29.570Z,10.32
2023-05-05T00:10:57.523Z,10.35
2023-05-05T00:13:24.460Z,10.33
2023-05-05T00:15:53.469Z,10.29
2023-05-05T00:18:21.177Z,10.20
2023-05-05T00:20:48.403Z,10.13
2023-05-05T00:23:16.015Z,10.10
2023-05-05T00:25:43.009Z,10.08
2023-05-05T00:28:09.691Z,10.10
2023-05-05T00:30:37.430Z,10.07
2023-05-05T00:33:04.278Z,10.04
2023-05-05T00:35:30.844Z,10.03
2023-05-05T00:37:57.376Z,10.06
2023-05-05T00:40:25.128Z,10.05
2023-05-05T00:42:52.177Z,10.01
2023-05-05T00:45:20.022Z,10.01
2023-05-05T00:47:49.339Z,9.95
2023-05-05T00:50:30.553Z,9.94
2023-05-05T00:53:06.399Z,9.94
2023-05-05T00:55:34.372Z,9.82
2023-05-05T00:58:02.697Z,9.77
2023-05-05T01:00:30.139Z,9.71
2023-05-05T01:02:57.125Z,9.72
2023-05-05T01:05:26.957Z,9.71
2023-05-05T01:07:59.194Z,9.74
2023-05-05T01:10:36.433Z,9.66
2023-05-05T01:13:11.778Z,9.61
2023-05-05T01:15:48.249Z,9.55
2023-05-05T01:18:35.029Z,9.49
2023-05-05T01:21:27.479Z,9.51
2023-05-05T01:24:26.065Z,9.45
2023-05-05T01:27:34.160Z,9.45
2023-05-05T01:30:19.600Z,9.44
2023-05-05T01:32:55.394Z,9.41
2023-05-05T01:35:53.435Z,9.41
2023-05-05T01:38:26.186Z,9.34
2023-05-05T01:41:01.816Z,9.34
2023-05-05T01:43:31.158Z,9.33
2023-05-05T01:46:00.574Z,9.28
2023-05-05T01:48:27.528Z,9.28
2023-05-05T01:50:54.236Z,9.26
2023-05-05T01:53:24.050Z,9.26
2023-05-05T01:55:51.398Z,9.26
2023-05-05T01:58:18.860Z,9.21
2023-05-05T02:00:47.045Z,9.23
2023-05-05T02:03:15.745Z,9.18
2023-05-05T02:05:43.916Z,9.17
2023-05-05T02:08:11.614Z,9.06
2023-05-05T02:10:42.835Z,9.05
2023-05-05T02:13:12.708Z,9.02
2023-05-05T02:15:40.507Z,9.02
2023-05-05T02:18:07.649Z,9.02
2023-05-05T02:20:37.304Z,8.97
2023-05-05T02:23:05.782Z,8.92
2023-05-05T02:25:44.418Z,8.90
2023-05-05T02:28:20.359Z,8.88
2023-05-05T02:30:57.619Z,8.83
2023-05-05T02:33:26.178Z,8.80
2023-05-05T02:35:56.617Z,8.80
2023-05-05T02:38:28.825Z,8.75
2023-05-05T02:40:58.335Z,8.65
2023-05-05T02:43:26.932Z,8.63
2023-05-05T02:45:53.499Z,8.62
2023-05-05T02:48:20.252Z,8.57
2023-05-05T02:50:46.763Z,8.54
2023-05-05T02:53:13.726Z,8.51
2023-05-05T02:55:52.477Z,8.45
2023-05-05T02:58:29.150Z,8.43
2023-05-05T03:01:07.321Z,8.39
2023-05-05T03:04:03.212Z,8.33
2023-05-05T03:06:33.076Z,8.29
2023-05-05T03:09:08.754Z,8.25
2023-05-05T03:11:47.805Z,8.18
2023-05-05T03:14:18.376Z,8.16
2023-05-05T03:16:46.404Z,8.22
2023-05-05T03:19:17.088Z,8.18
2023-05-05T03:21:44.149Z,8.16
2023-05-05T03:24:18.032Z,8.15
2023-05-05T03:26:45.906Z,8.12
2023-05-05T03:29:13.316Z,8.14
2023-05-05T03:31:40.098Z,8.15
2023-05-05T03:34:07.288Z,8.07
2023-05-05T03:36:35.286Z,8.12
2023-05-05T03:39:01.860Z,8.11
2023-05-05T03:41:28.428Z,8.08
2023-05-05T03:43:55.099Z,8.08
2023-05-05T03:46:21.710Z,8.10
2023-05-05T03:48:48.749Z,8.16
2023-05-05T03:51:15.701Z,8.15
2023-05-05T03:53:42.280Z,8.12
2023-05-05T03:56:09.179Z,8.16
2023-05-05T03:58:35.781Z,8.14
2023-05-05T04:01:02.309Z,8.20
2023-05-05T04:03:28.886Z,8.19
2023-05-05T04:05:55.947Z,8.16
2023-05-05T04:08:22.502Z,8.24
2023-05-05T04:10:48.987Z,8.19
2023-05-05T04:13:15.643Z,8.27
2023-05-05T04:15:48.058Z,8.29
2023-05-05T04:18:14.642Z,8.32
2023-05-05T04:20:41.194Z,8.36
2023-05-05T04:23:07.709Z,8.45
2023-05-05T04:25:34.171Z,8.46
2023-05-05T04:28:00.896Z,8.57
2023-05-05T04:30:27.476Z,8.65
2023-05-05T04:32:54.054Z,8.80
2023-05-05T04:35:20.633Z,8.91
2023-05-05T04:37:47.176Z,9.01
2023-05-05T04:40:13.803Z,9.01
2023-05-05T04:42:40.424Z,9.06
2023-05-05T04:45:08.474Z,9.02
2023-05-05T04:47:39.546Z,9.04
2023-05-05T04:50:07.506Z,8.98
2023-05-05T04:52:34.310Z,9.09
2023-05-05T04:55:01.250Z,9.11
2023-05-05T04:57:27.991Z,9.12
2023-05-05T04:59:54.481Z,9.17
2023-05-05T05:02:21.117Z,9.23
2023-05-05T05:04:47.802Z,9.32
2023-05-05T05:07:16.836Z,9.39
2023-05-05T05:09:43.310Z,9.37
2023-05-05T05:12:09.894Z,9.44
2023-05-05T05:14:39.972Z,9.42
2023-05-05T05:17:06.910Z,9.43
2023-05-05T05:19:33.603Z,9.47
2023-05-05T05:22:00.170Z,9.59
2023-05-05T05:24:26.630Z,9.76
2023-05-05T05:26:53.095Z,9.85
2023-05-05T05:29:20.382Z,10.02
2023-05-05T05:31:46.926Z,10.11
2023-05-05T05:34:13.523Z,10.33
2023-05-05T05:36:39.976Z,10.41
2023-05-05T05:39:06.542Z,10.70
2023-05-05T05:41:33.125Z,10.73
2023-05-05T05:43:59.631Z,10.83
2023-05-05T05:46:26.142Z,10.87
2023-05-05T05:48:52.729Z,10.81
2023-05-05T05:51:19.279Z,10.82
2023-05-05T05:53:45.935Z,10.76
2023-05-05T05:56:12.375Z,10.90
2023-05-05T05:58:39.059Z,10.80
2023-05-05T06:01:05.557Z,10.78
2023-05-05T06:03:32.100Z,10.56
2023-05-05T06:05:59.237Z,10.71
2023-05-05T06:08:26.827Z,10.75
2023-05-05T06:10:53.331Z,11.09
2023-05-05T06:13:19.829Z,11.18
2023-05-05T06:15:46.452Z,11.16
2023-05-05T06:18:13.183Z,11.23
2023-05-05T06:20:40.009Z,11.24
2023-05-05T06:23:06.887Z,11.20
2023-05-05T06:25:33.380Z,11.37
2023-05-05T06:28:00.183Z,11.56
2023-05-05T06:30:26.809Z,11.63
2023-05-05T06:32:54.396Z,11.65
2023-05-05T06:35:22.084Z,11.63
2023-05-05T06:37:48.590Z,11.83
2023-05-05T06:40:15.326Z,11.96
2023-05-05T06:42:41.868Z,12.28
2023-05-05T06:45:08.952Z,12.40
2023-05-05T06:47:36.063Z,12.54
2023-05-05T06:50:02.602Z,12.69
2023-05-05T06:52:29.258Z,12.99
2023-05-05T06:54:55.908Z,13.29
2023-05-05T06:57:22.486Z,13.15
2023-05-05T06:59:48.988Z,13.14
2023-05-05T07:02:15.490Z,13.48
2023-05-05T07:04:43.581Z,13.89
2023-05-05T07:07:10.029Z,14.55
2023-05-05T07:09:36.576Z,15.21
2023-05-05T07:12:03.660Z,15.29
2023-05-05T07:14:30.684Z,15.64
2023-05-05T07:16:57.282Z,15.57
2023-05-05T07:19:23.839Z,15.44
2023-05-05T07:21:50.446Z,15.56
2023-05-05T07:24:17.002Z,14.76
2023-05-05T07:26:43.594Z,14.59
2023-05-05T07:29:10.100Z,14.53
2023-05-05T07:31:36.626Z,14.66
2023-05-05T07:34:03.174Z,14.66
2023-05-05T07:36:30.302Z,14.52
2023-05-05T07:38:56.795Z,14.35
2023-05-05T07:41:23.350Z,14.29
2023-05-05T07:43:49.828Z,14.40
2023-05-05T07:46:16.450Z,14.60
2023-05-05T07:48:43.086Z,14.59
2023-05-05T07:51:09.774Z,14.27
2023-05-05T07:53:36.961Z,14.29
2023-05-05T07:56:03.763Z,14.21
2023-05-05T07:58:30.339Z,14.12
2023-05-05T08:00:56.820Z,14.31
2023-05-05T08:03:24.895Z,14.44
2023-05-05T08:05:56.431Z,14.48
2023-05-05T08:08:24.941Z,14.63
2023-05-05T08:10:52.991Z,14.51
2023-05-05T08:13:19.749Z,14.49
2023-05-05T08:15:46.442Z,14.56
2023-05-05T08:18:14.348Z,14.40
2023-05-05T08:20:41.040Z,14.24
2023-05-05T08:23:07.569Z,14.45
2023-05-05T08:25:34.183Z,14.64
2023-05-05T08:28:00.897Z,14.61
2023-05-05T08:30:27.696Z,14.68
2023-05-05T08:32:54.239Z,14.81
2023-05-05T08:35:20.997Z,14.90
2023-05-05T08:37:47.489Z,14.89
2023-05-05T08:40:14.698Z,15.04
2023-05-05T08:42:42.098Z,15.18
2023-05-05T08:45:10.173Z,15.20
2023-05-05T08:47:38.788Z,15.36
2023-05-05T08:50:06.167Z,15.23
2023-05-05T08:52:39.737Z,15.35
2023-05-05T08:55:14.472Z,15.45
2023-05-05T08:57:57.913Z,15.40
2023-05-05T09:00:27.235Z,15.77
2023-05-05T09:02:56.900Z,15.83
2023-05-05T09:05:23.910Z,15.63
2023-05-05T09:07:50.683Z,15.80
2023-05-05T09:10:17.856Z,15.94
2023-05-05T09:12:44.736Z,15.74
2023-05-05T09:15:13.112Z,15.92
2023-05-05T09:17:40.558Z,15.91
2023-05-05T09:20:08.960Z,15.87
2023-05-05T09:22:43.676Z,16.01
2023-05-05T09:25:12.192Z,16.00
2023-05-05T09:27:41.406Z,16.08
2023-05-05T09:30:10.134Z,16.19
2023-05-05T09:32:50.258Z,16.03
2023-05-05T09:35:18.358Z,16.13
2023-05-05T09:37:45.206Z,16.33
2023-05-05T09:40:14.890Z,16.14
2023-05-05T09:42:41.853Z,16.37
2023-05-05T09:45:17.347Z,16.40
2023-05-05T09:47:47.756Z,16.46
2023-05-05T09:50:18.558Z,16.67
2023-05-05T09:52:56.150Z,17.01
2023-05-05T09:55:24.060Z,16.71
2023-05-05T09:57:50.594Z,17.01
2023-05-05T10:00:17.681Z,16.88
2023-05-05T10:02:44.292Z,17.25
2023-05-05T10:05:13.047Z,17.30
2023-05-05T10:07:42.991Z,17.50
2023-05-05T10:10:12.339Z,17.45
2023-05-05T10:12:39.917Z,17.44
2023-05-05T10:15:09.511Z,17.03
2023-05-05T10:17:38.668Z,16.75
2023-05-05T10:20:10.053Z,16.73
2023-05-05T10:22:38.811Z,16.62
2023-05-05T10:25:15.964Z,16.86
2023-05-05T10:27:45.962Z,16.67
2023-05-05T10:30:30.421Z,16.59
2023-05-05T10:33:31.063Z,16.54
2023-05-05T10:36:01.944Z,16.61
2023-05-05T10:38:30.992Z,16.51
2023-05-05T10:40:59.616Z,16.38
2023-05-05T10:43:27.734Z,16.60
2023-05-05T10:45:55.633Z,16.45
2023-05-05T10:48:48.469Z,16.41
2023-05-05T10:51:31.040Z,16.41
2023-05-05T10:54:26.483Z,16.49
2023-05-05T10:56:53.362Z,16.34
2023-05-05T10:59:38.378Z,16.17
2023-05-05T11:02:21.664Z,16.18
2023-05-05T11:05:06.970Z,16.39
2023-05-05T11:07:34.558Z,16.58
2023-05-05T11:10:03.572Z,16.67
2023-05-05T11:12:32.178Z,16.57
2023-05-05T11:15:37.999Z,16.54
2023-05-05T11:18:07.980Z,16.73
2023-05-05T11:20:39.505Z,16.93
2023-05-05T11:23:06.306Z,17.06
2023-05-05T11:25:36.458Z,17.21
2023-05-05T11:28:19.635Z,17.03
2023-05-05T11:30:55.328Z,16.96
2023-05-05T11:33:29.191Z,17.16
2023-05-05T11:35:59.675Z,17.07
2023-05-05T11:38:44.309Z,17.04
2023-05-05T11:41:14.258Z,16.94
2023-05-05T11:43:41.778Z,17.04
2023-05-05T11:46:14.302Z,17.16
2023-05-05T11:48:52.819Z,17.13
2023-05-05T11:51:19.538Z,17.09
2023-05-05T11:53:47.786Z,17.28
2023-05-05T11:56:19.212Z,17.28
2023-05-05T11:58:46.799Z,17.21
2023-05-05T12:01:13.608Z,17.23
2023-05-05T12:03:40.727Z,17.17
2023-05-05T12:06:08.237Z,17.06
2023-05-05T12:08:39.382Z,17.08
2023-05-05T12:11:09.324Z,17.08
2023-05-05T12:13:35.870Z,17.15
2023-05-05T12:16:13.178Z,17.23
2023-05-05T12:18:40.894Z,17.29
2023-05-05T12:21:20.852Z,17.46
2023-05-05T12:23:47.545Z,17.36
2023-05-05T12:26:30.075Z,17.44
2023-05-05T12:29:00.383Z,17.45
2023-05-05T12:31:41.518Z,17.71
2023-05-05T12:34:11.980Z,17.81
2023-05-05T12:36:39.834Z,17.84
2023-05-05T12:39:06.411Z,17.84
2023-05-05T12:41:34.260Z,17.76
2023-05-05T12:44:03.123Z,17.76
2023-05-05T12:46:31.069Z,17.53
2023-05-05T12:49:04.890Z,17.52
2023-05-05T12:51:32.898Z,17.95
2023-05-05T12:54:10.322Z,17.88
2023-05-05T12:56:36.866Z,18.02
2023-05-05T12:59:11.042Z,18.22
2023-05-05T13:01:49.041Z,18.14
2023-05-05T13:04:16.031Z,18.24
2023-05-05T13:06:47.932Z,18.04
2023-05-05T13:09:35.628Z,17.92
2023-05-05T13:12:05.608Z,18.01
2023-05-05T13:17:07.512Z,18.05
2023-05-05T13:19:35.744Z,18.21
2023-05-05T13:22:02.329Z,18.08
2023-05-05T13:24:42.330Z,18.00
2023-05-05T13:27:13.850Z,17.87
2023-05-05T13:29:41.697Z,18.00
2023-05-05T13:32:08.284Z,17.73
2023-05-05T13:34:34.912Z,17.54
2023-05-05T13:37:01.373Z,17.47
2023-05-05T13:39:27.923Z,17.54
2023-05-05T13:41:54.421Z,17.41
2023-05-05T13:44:21.026Z,17.35
2023-05-05T13:46:47.935Z,17.41
2023-05-05T13:49:14.631Z,17.53
2023-05-05T13:51:41.184Z,17.35
2023-05-05T13:54:07.784Z,17.48
2023-05-05T13:56:34.755Z,17.47
2023-05-05T13:59:02.389Z,17.45
2023-05-05T14:01:29.688Z,17.53
2023-05-05T14:03:57.573Z,17.58
2023-05-05T14:06:24.479Z,17.65
2023-05-05T14:08:51.701Z,17.51
2023-05-05T14:11:18.302Z,17.57
2023-05-05T14:13:46.489Z,17.71
2023-05-05T14:16:13.653Z,17.75
2023-05-05T14:18:40.384Z,17.66
2023-05-05T14:21:07.025Z,17.26
2023-05-05T14:23:33.592Z,17.51
2023-05-05T14:26:00.510Z,17.78
2023-05-05T14:28:27.050Z,17.71
2023-05-05T14:30:53.742Z,17.59
2023-05-05T14:33:20.309Z,17.54
2023-05-05T14:35:46.922Z,17.48
2023-05-05T14:38:13.421Z,17.37
2023-05-05T14:40:39.926Z,17.22
2023-05-05T14:43:06.631Z,17.20
2023-05-05T14:45:33.631Z,17.05
2023-05-05T14:48:00.256Z,16.82
2023-05-05T14:50:26.827Z,16.88
2023-05-05T14:52:53.344Z,16.58
2023-05-05T14:55:19.905Z,16.43
2023-05-05T14:57:46.410Z,16.34
2023-05-05T15:00:13.454Z,16.41
2023-05-05T15:02:40.161Z,16.54
2023-05-05T15:05:07.758Z,16.79
2023-05-05T15:07:34.522Z,16.74
2023-05-05T15:10:01.547Z,16.93
2023-05-05T15:12:28.066Z,16.93
2023-05-05T15:14:55.443Z,16.80
2023-05-05T15:17:22.147Z,16.58
2023-05-05T15:19:48.824Z,16.35
2023-05-05T15:22:15.620Z,16.32
2023-05-05T15:24:42.198Z,16.58
2023-05-05T15:27:08.866Z,16.62
2023-05-05T15:29:35.372Z,16.40
2023-05-05T15:32:01.934Z,16.45
2023-05-05T15:34:28.509Z,16.35
2023-05-05T15:36:55.093Z,16.29
2023-05-05T15:39:21.692Z,16.20
2023-05-05T15:41:48.338Z,16.18
2023-05-05T15:44:15.047Z,16.01
2023-05-05T15:46:41.645Z,16.19
2023-05-05T15:49:08.303Z,16.02
2023-05-05T15:51:35.411Z,15.90
2023-05-05T15:54:02.013Z,15.73
2023-05-05T15:56:29.277Z,15.65
2023-05-05T15:58:56.741Z,15.62
2023-05-05T16:01:23.434Z,15.63
2023-05-05T16:03:50.182Z,15.53
2023-05-05T16:06:16.760Z,15.46
2023-05-05T16:08:43.418Z,15.62
2023-05-05T16:11:11.528Z,15.65
2023-05-05T16:13:39.134Z,15.68
2023-05-05T16:16:06.821Z,15.67
2023-05-05T16:18:33.562Z,15.41
2023-05-05T16:21:00.188Z,15.44
2023-05-05T16:23:26.990Z,15.41
2023-05-05T16:25:53.574Z,15.47
2023-05-05T16:28:20.134Z,15.57
2023-05-05T16:30:46.694Z,15.45
2023-05-05T16:33:13.214Z,15.24
2023-05-05T16:35:39.777Z,15.23
2023-05-05T16:38:06.364Z,15.16
2023-05-05T16:40:32.983Z,15.08
2023-05-05T16:42:59.470Z,15.01
2023-05-05T16:45:25.987Z,14.89
2023-05-05T16:47:52.540Z,14.83
2023-05-05T16:50:19.237Z,14.79
2023-05-05T16:52:46.009Z,14.69
2023-05-05T16:55:12.652Z,14.58
2023-05-05T16:57:39.173Z,14.56
2023-05-05T17:00:07.311Z,14.43
2023-05-05T17:02:35.302Z,14.32
2023-05-05T17:05:02.588Z,14.25
2023-05-05T17:07:29.265Z,14.25
2023-05-05T17:09:55.769Z,14.16
2023-05-05T17:12:22.354Z,14.10
2023-05-05T17:14:49.190Z,14.01
2023-05-05T17:17:15.672Z,13.98
2023-05-05T17:19:42.756Z,13.90
2023-05-05T17:22:09.456Z,13.72
2023-05-05T17:24:36.453Z,13.73
2023-05-05T17:27:03.301Z,13.73
2023-05-05T17:29:29.893Z,13.66
2023-05-05T17:31:56.809Z,13.60
2023-05-05T17:34:23.334Z,13.58
2023-05-05T17:36:49.870Z,13.51
2023-05-05T17:39:16.933Z,13.40
2023-05-05T17:41:43.500Z,13.36
2023-05-05T17:44:10.098Z,13.25
2023-05-05T17:46:37.435Z,13.16
2023-05-05T17:49:04.016Z,13.08
2023-05-05T17:51:31.446Z,13.00
2023-05-05T17:53:58.393Z,12.79
2023-05-05T17:56:24.972Z,12.75
2023-05-05T17:58:51.970Z,12.66
2023-05-05T18:01:26.720Z,12.62
2023-05-05T18:03:53.711Z,12.52
2023-05-05T18:06:20.570Z,12.39
2023-05-05T18:08:48.081Z,12.31
2023-05-05T18:11:15.399Z,12.21
2023-05-05T18:13:43.057Z,12.15
2023-05-05T18:16:09.606Z,12.06
2023-05-05T18:18:36.523Z,12.00
2023-05-05T18:21:03.146Z,11.92
2023-05-05T18:23:29.727Z,11.90
2023-05-05T18:25:56.451Z,11.81
2023-05-05T18:28:23.482Z,11.74
2023-05-05T18:30:50.073Z,11.68
2023-05-05T18:33:16.748Z,11.58
2023-05-05T18:35:43.389Z,11.53
2023-05-05T18:38:10.078Z,11.48
2023-05-05T18:40:36.702Z,11.43
2023-05-05T18:43:03.340Z,11.37
2023-05-05T18:45:30.204Z,11.31
2023-05-05T18:47:56.806Z,11.31
2023-05-05T18:50:23.384Z,11.23
2023-05-05T18:52:49.949Z,11.18
2023-05-05T18:55:16.845Z,11.13
2023-05-05T18:57:43.435Z,11.08
2023-05-05T19:00:10.839Z,11.05
2023-05-05T19:02:37.671Z,11.01
2023-05-05T19:05:04.768Z,10.95
2023-05-05T19:07:35.054Z,10.94
2023-05-05T19:10:04.568Z,10.90
2023-05-05T19:12:31.592Z,10.88
2023-05-05T19:15:01.459Z,10.88
2023-05-05T19:17:28.001Z,10.85
2023-05-05T19:19:54.845Z,10.81
2023-05-05T19:22:23.081Z,10.82
2023-05-05T19:24:49.703Z,10.82
2023-05-05T19:27:17.118Z,10.81
2023-05-05T19:29:44.583Z,10.81
2023-05-05T19:32:11.169Z,10.77
2023-05-05T19:34:37.843Z,10.77
2023-05-05T19:37:04.691Z,10.69
2023-05-05T19:39:31.302Z,10.68
2023-05-05T19:41:57.917Z,10.66
2023-05-05T19:44:24.692Z,10.63
2023-05-05T19:46:53.079Z,10.69
2023-05-05T19:49:19.799Z,10.60
2023-05-05T19:51:49.802Z,10.55
2023-05-05T19:54:16.806Z,10.52
2023-05-05T19:56:43.478Z,10.45
2023-05-05T19:59:10.813Z,10.41
2023-05-05T20:01:39.266Z,10.44
2023-05-05T20:04:06.061Z,10.43
2023-05-05T20:06:36.644Z,10.39
2023-05-05T20:09:04.677Z,10.37
2023-05-05T20:11:31.694Z,10.33
2023-05-05T20:13:58.702Z,10.34
2023-05-05T20:16:28.003Z,10.34
2023-05-05T20:18:54.997Z,10.30
2023-05-05T20:21:21.640Z,10.26
2023-05-05T20:23:48.543Z,10.21
2023-05-05T20:26:15.337Z,10.20
2023-05-05T20:28:45.134Z,10.18
2023-05-05T20:31:14.210Z,10.14
2023-05-05T20:33:41.005Z,10.09
2023-05-05T20:36:07.805Z,10.04
2023-05-05T20:38:37.238Z,10.00
2023-05-05T20:41:03.814Z,10.00
2023-05-05T20:43:30.335Z,9.96
2023-05-05T20:45:57.055Z,9.95
2023-05-05T20:48:23.607Z,9.91
2023-05-05T20:50:51.243Z,9.93
2023-05-05T20:53:19.166Z,9.89
2023-05-05T20:55:45.972Z,9.84
2023-05-05T20:58:12.780Z,9.80
2023-05-05T21:00:39.604Z,9.78
2023-05-05T21:03:08.858Z,9.71
2023-05-05T21:05:36.170Z,9.70
2023-05-05T21:08:02.910Z,9.70
2023-05-05T21:10:29.549Z,9.66
2023-05-05T21:12:56.200Z,9.59
2023-05-05T21:15:23.137Z,9.60
2023-05-05T21:17:50.007Z,9.57
2023-05-05T21:20:18.604Z,9.54
2023-05-05T21:22:45.793Z,9.52
2023-05-05T21:25:19.325Z,9.47
2023-05-05T21:27:47.775Z,9.46
2023-05-05T21:30:15.774Z,9.44
2023-05-05T21:32:42.956Z,9.44
2023-05-05T21:35:10.214Z,9.40
2023-05-05T21:37:38.078Z,9.40
2023-05-05T21:40:06.300Z,9.38
2023-05-05T21:42:32.899Z,9.37
2023-05-05T21:44:59.496Z,9.35
2023-05-05T21:47:27.003Z,9.30
2023-05-05T21:49:53.471Z,9.30
2023-05-05T21:52:20.152Z,9.30
2023-05-05T21:54:46.743Z,9.30
2023-05-05T21:57:13.208Z,9.32
2023-05-05T21:59:39.871Z,9.30
2023-05-05T22:02:06.386Z,9.35
2023-05-05T22:04:32.913Z,9.37
2023-05-05T22:06:59.495Z,9.37
2023-05-05T22:09:25.981Z,9.40
2023-05-05T22:11:52.569Z,9.40
2023-05-05T22:14:19.090Z,9.39
2023-05-05T22:16:45.742Z,9.42
2023-05-05T22:19:12.375Z,9.39
2023-05-05T22:21:38.809Z,9.37
2023-05-05T22:24:07.232Z,9.35
2023-05-05T22:26:33.788Z,9.37
2023-05-05T22:29:00.737Z,9.37
2023-05-05T22:31:27.378Z,9.36
2023-05-05T22:33:53.856Z,9.30
2023-05-05T22:36:20.445Z,9.29
2023-05-05T22:38:46.947Z,9.26
2023-05-05T22:41:13.627Z,9.29
2023-05-05T22:43:40.110Z,9.28
2023-05-05T22:46:06.705Z,9.27
2023-05-05T22:48:33.212Z,9.28
2023-05-05T22:50:59.964Z,9.25
2023-05-05T22:53:26.584Z,9.23
2023-05-05T22:55:53.151Z,9.23
2023-05-05T22:58:20.067Z,9.21
2023-05-05T23:00:46.725Z,9.23
2023-05-05T23:03:13.397Z,9.19
2023-05-05T23:05:39.864Z,9.16
2023-05-05T23:08:06.623Z,9.13
2023-05-05T23:10:33.134Z,9.10
2023-05-05T23:12:59.662Z,9.13
2023-05-05T23:15:26.157Z,9.13
2023-05-05T23:17:52.757Z,9.14
2023-05-05T23:20:19.526Z,9.15
2023-05-05T23:22:45.996Z,9.21
2023-05-05T23:25:12.856Z,9.21
2023-05-05T23:27:42.663Z,9.24
2023-05-05T23:30:09.709Z,9.24
2023-05-05T23:32:36.329Z,9.27
2023-05-05T23:35:02.931Z,9.25
2023-05-05T23:37:29.537Z,9.27
2023-05-05T23:39:56.761Z,9.27
2023-05-05T23:42:24.068Z,9.30
2023-05-05T23:44:50.562Z,9.31
2023-05-05T23:47:17.160Z,9.34
2023-05-05T23:49:43.643Z,9.35
2023-05-05T23:52:10.905Z,9.34
2023-05-05T23:54:37.346Z,9.32
2023-05-05T23:57:03.937Z,9.31
2023-05-05T23:59:30.624Z,9.31
